Time;durP1;ratioP1;P1;durP2;ratioP2;P2;SDS_P1;SDS_P2;PMS_P1;PMS_P2;Temp;Humidity;BMP_temperature;BMP_pressure;BME280_temperature;BME280_humidity;BME280_pressure;Samples;Min_cycle;Max_cycle;Signal;HPM_P1;HPM_P2
2023/10/16 00:00:36;;;;;;;0.93;0.93;;;;;2.80;96566.00;;;;5075398;28;20662;-65
2023/10/16 00:03:04;;;;;;;0.80;0.80;;;;;2.70;96576.00;;;;5075080;28;20235;-65
2023/10/16 00:05:39;;;;;;;0.90;0.90;;;;;2.50;96566.00;;;;5075138;28;20556;-65
2023/10/16 00:08:07;;;;;;;0.73;0.73;;;;;2.50;96563.00;;;;5073859;28;20209;-65
2023/10/16 00:10:35;;;;;;;1.37;1.27;;;;;2.60;96568.00;;;;5074729;28;20222;-65
2023/10/16 00:13:05;;;;;;;4.07;1.00;;;;;2.70;96566.00;;;;5075157;28;20247;-65
2023/10/16 00:15:40;;;;;;;0.70;0.70;;;;;2.50;96578.00;;;;5075286;28;20670;-65
2023/10/16 00:18:13;;;;;;;1.20;1.10;;;;;2.30;96573.00;;;;5075735;28;20190;-65
2023/10/16 00:20:41;;;;;;;0.90;0.90;;;;;2.30;96570.00;;;;5075280;28;20194;-64
2023/10/16 00:23:11;;;;;;;0.80;0.80;;;;;2.40;96564.00;;;;5075450;28;20203;-64
2023/10/16 00:25:39;;;;;;;1.70;1.60;;;;;2.40;96564.00;;;;5075858;28;20196;-64
2023/10/16 00:28:09;;;;;;;0.80;0.80;;;;;2.30;96563.00;;;;5074142;28;20196;-64
2023/10/16 00:30:37;;;;;;;1.73;1.60;;;;;2.30;96560.00;;;;5074704;28;20192;-64
2023/10/16 00:33:10;;;;;;;1.97;1.83;;;;;2.30;96562.00;;;;5074745;28;20211;-64
2023/10/16 00:35:38;;;;;;;0.77;0.77;;;;;2.40;96556.00;;;;5074699;28;20238;-65
2023/10/16 00:38:12;;;;;;;0.90;0.90;;;;;2.10;96562.00;;;;5075036;28;20317;-65
2023/10/16 00:40:40;;;;;;;1.00;1.00;;;;;2.10;96558.00;;;;5074602;28;20266;-65
2023/10/16 00:43:11;;;;;;;0.90;0.90;;;;;2.30;96553.00;;;;5074411;28;20213;-65
2023/10/16 00:45:46;;;;;;;3.53;1.10;;;;;2.20;96548.00;;;;5074679;28;20174;-65
2023/10/16 00:48:17;;;;;;;0.70;0.70;;;;;2.10;96546.00;;;;5074723;28;20183;-65
2023/10/16 00:50:45;;;;;;;1.30;1.20;;;;;2.20;96544.00;;;;5074949;28;20184;-65
2023/10/16 00:53:14;;;;;;;0.90;0.90;;;;;2.00;96543.00;;;;5074295;28;20203;-64
2023/10/16 00:55:42;;;;;;;0.77;0.77;;;;;1.90;96541.00;;;;5074351;28;20217;-64
2023/10/16 00:58:10;;;;;;;0.60;0.60;;;;;2.00;96540.00;;;;5074679;28;20190;-64
2023/10/16 01:00:39;;;;;;;0.73;0.73;;;;;1.90;96535.00;;;;5074716;28;20231;-64
2023/10/16 01:03:06;;;;;;;0.97;0.97;;;;;2.10;96531.00;;;;5075253;28;20326;-64
2023/10/16 01:05:39;;;;;;;1.40;1.33;;;;;2.00;96535.00;;;;5074668;28;20558;-64
2023/10/16 01:08:09;;;;;;;1.10;1.10;;;;;1.80;96527.00;;;;5074314;28;20270;-64
2023/10/16 01:10:40;;;;;;;1.50;1.27;;;;;2.00;96517.00;;;;5074476;28;20196;-65
2023/10/16 01:13:12;;;;;;;0.70;0.70;;;;;2.00;96519.00;;;;5074177;28;20277;-65
2023/10/16 01:15:46;;;;;;;0.80;0.80;;;;;2.00;96506.00;;;;5074194;28;20631;-65
2023/10/16 01:18:15;;;;;;;0.83;0.83;;;;;1.90;96513.00;;;;5074613;28;20193;-65
2023/10/16 01:20:48;;;;;;;1.13;1.13;;;;;1.80;96516.00;;;;5074365;28;20195;-65
2023/10/16 01:23:19;;;;;;;0.60;0.60;;;;;1.70;96503.00;;;;5074034;28;20539;-65
2023/10/16 01:25:48;;;;;;;1.37;0.90;;;;;1.60;96499.00;;;;5073676;28;20190;-65
2023/10/16 01:28:16;;;;;;;1.67;1.07;;;;;1.70;96498.00;;;;5073817;28;20555;-65
2023/10/16 01:30:45;;;;;;;0.60;0.60;;;;;1.80;96500.00;;;;5074090;28;20229;-65
2023/10/16 01:33:16;;;;;;;0.70;0.70;;;;;1.70;96496.00;;;;5073779;28;20226;-65
2023/10/16 01:35:44;;;;;;;0.70;0.70;;;;;1.70;96495.00;;;;5073861;28;20213;-65
2023/10/16 01:38:16;;;;;;;0.80;0.80;;;;;1.70;96490.00;;;;5073669;28;20223;-65
2023/10/16 01:41:05;;;;;;;0.80;0.80;;;;;1.60;96495.00;;;;5073744;28;20635;-65
2023/10/16 01:43:33;;;;;;;0.87;0.87;;;;;1.60;96492.00;;;;5073978;28;20232;-65
2023/10/16 01:46:07;;;;;;;0.60;0.60;;;;;1.50;96496.00;;;;5073928;28;20227;-65
2023/10/16 01:48:37;;;;;;;1.53;1.43;;;;;1.50;96491.00;;;;5073188;28;20189;-65
2023/10/16 01:51:06;;;;;;;0.97;0.97;;;;;1.50;96500.00;;;;5073342;28;20195;-65
2023/10/16 01:53:36;;;;;;;1.57;0.90;;;;;1.50;96498.00;;;;5073848;28;20214;-64
2023/10/16 01:56:13;;;;;;;0.70;0.70;;;;;1.60;96491.00;;;;5073277;28;20198;-65
2023/10/16 01:58:42;;;;;;;1.03;0.97;;;;;1.60;96492.00;;;;5073133;28;20186;-65
2023/10/16 02:01:10;;;;;;;2.80;1.10;;;;;1.70;96477.00;;;;5073018;28;20222;-65
2023/10/16 02:03:38;;;;;;;1.00;1.00;;;;;1.70;96477.00;;;;5072039;28;20190;-65
2023/10/16 02:06:06;;;;;;;1.00;1.00;;;;;1.70;96475.00;;;;5073892;28;20277;-65
2023/10/16 02:08:33;;;;;;;0.70;0.70;;;;;1.70;96480.00;;;;5073248;28;20202;-65
2023/10/16 02:11:02;;;;;;;1.53;1.43;;;;;1.60;96467.00;;;;5073531;28;20248;-65
2023/10/16 02:13:35;;;;;;;0.80;0.80;;;;;1.50;96469.00;;;;5073362;28;20690;-65
2023/10/16 02:16:03;;;;;;;1.00;1.00;;;;;1.50;96473.00;;;;5073297;28;20622;-65
2023/10/16 02:18:36;;;;;;;1.30;1.30;;;;;1.50;96470.00;;;;5072932;28;20229;-65
2023/10/16 02:21:04;;;;;;;2.50;1.00;;;;;1.50;96474.00;;;;5073213;28;20197;-65
2023/10/16 02:23:31;;;;;;;1.30;1.20;;;;;1.50;96462.00;;;;5073047;28;20191;-65
2023/10/16 02:26:01;;;;;;;1.07;1.07;;;;;1.50;96466.00;;;;5073071;28;20666;-65
2023/10/16 02:28:31;;;;;;;1.83;1.13;;;;;1.20;96461.00;;;;5072883;28;20271;-65
2023/10/16 02:31:10;;;;;;;1.00;1.00;;;;;0.90;96470.00;;;;5073862;28;20545;-65
2023/10/16 02:33:38;;;;;;;1.13;1.03;;;;;1.00;96463.00;;;;5073131;28;20217;-65
2023/10/16 02:36:07;;;;;;;0.80;0.80;;;;;1.10;96459.00;;;;5072829;28;20735;-65
2023/10/16 02:38:34;;;;;;;1.00;1.00;;;;;1.10;96467.00;;;;5071652;28;20197;-65
2023/10/16 02:41:03;;;;;;;0.80;0.80;;;;;0.90;96466.00;;;;5072727;28;20628;-65
2023/10/16 02:43:36;;;;;;;0.83;0.83;;;;;1.10;96458.00;;;;5072861;28;20214;-65
2023/10/16 02:46:05;;;;;;;0.70;0.70;;;;;1.00;96450.00;;;;5073197;28;20187;-65
2023/10/16 02:48:32;;;;;;;1.40;1.30;;;;;1.10;96451.00;;;;5072951;28;20190;-65
2023/10/16 02:51:00;;;;;;;1.00;1.00;;;;;1.10;96460.00;;;;5072643;28;20241;-65
2023/10/16 02:53:30;;;;;;;0.60;0.60;;;;;0.90;96450.00;;;;5072661;28;20211;-65
2023/10/16 02:56:05;;;;;;;0.80;0.80;;;;;1.10;96452.00;;;;5073520;28;20202;-65
2023/10/16 02:58:34;;;;;;;4.23;2.10;;;;;1.10;96458.00;;;;5073012;28;20640;-65
2023/10/16 03:01:06;;;;;;;1.03;1.03;;;;;1.20;96456.00;;;;5072830;28;20194;-65
2023/10/16 03:03:34;;;;;;;0.90;0.90;;;;;1.10;96461.00;;;;5076727;28;20200;-65
2023/10/16 03:06:03;;;;;;;0.73;0.73;;;;;0.80;96462.00;;;;5076357;28;20201;-65
2023/10/16 03:08:31;;;;;;;0.70;0.70;;;;;0.90;96464.00;;;;5076820;28;20207;-65
2023/10/16 03:10:59;;;;;;;1.00;1.00;;;;;0.90;96459.00;;;;5076165;28;20195;-65
2023/10/16 03:13:27;;;;;;;0.93;0.93;;;;;1.10;96448.00;;;;5076765;28;20327;-65
2023/10/16 03:16:06;;;;;;;1.03;1.03;;;;;1.10;96447.00;;;;5076631;28;20205;-65
2023/10/16 03:18:35;;;;;;;0.80;0.80;;;;;0.90;96450.00;;;;5076153;28;20182;-65
2023/10/16 03:21:26;;;;;;;0.63;0.63;;;;;0.80;96449.00;;;;5076174;28;20597;-65
2023/10/16 03:23:53;;;;;;;0.80;0.80;;;;;0.80;96448.00;;;;5075926;28;20222;-65
2023/10/16 03:26:25;;;;;;;0.93;0.93;;;;;0.90;96443.00;;;;5076015;28;20202;-65
2023/10/16 03:28:53;;;;;;;0.70;0.70;;;;;0.90;96441.00;;;;5075970;28;20239;-65
2023/10/16 03:31:22;;;;;;;1.07;1.07;;;;;0.80;96446.00;;;;5075718;28;20632;-65
2023/10/16 03:33:49;;;;;;;1.10;1.10;;;;;0.80;96446.00;;;;5076099;28;20209;-65
2023/10/16 03:36:17;;;;;;;0.60;0.60;;;;;0.80;96434.00;;;;5075828;28;20200;-65
2023/10/16 03:38:45;;;;;;;1.57;1.47;;;;;0.90;96418.00;;;;5076229;28;20548;-65
2023/10/16 03:41:19;;;;;;;0.80;0.80;;;;;0.80;96428.00;;;;5077422;28;20263;-65
2023/10/16 03:43:47;;;;;;;1.73;1.63;;;;;0.80;96425.00;;;;5076774;28;20304;-65
2023/10/16 03:46:15;;;;;;;5.47;1.83;;;;;0.80;96423.00;;;;5076307;28;20198;-65
2023/10/16 03:48:44;;;;;;;1.57;1.47;;;;;0.70;96415.00;;;;5076172;28;20190;-65
2023/10/16 03:51:13;;;;;;;0.80;0.80;;;;;0.60;96422.00;;;;5074264;28;20226;-65
2023/10/16 03:53:40;;;;;;;0.70;0.70;;;;;0.70;96421.00;;;;5075896;28;20642;-65
2023/10/16 03:56:09;;;;;;;1.20;1.20;;;;;0.70;96421.00;;;;5075342;28;20272;-65
2023/10/16 03:58:41;;;;;;;0.90;0.90;;;;;0.80;96415.00;;;;5075345;28;20200;-65
2023/10/16 04:01:08;;;;;;;4.10;1.10;;;;;0.80;96415.00;;;;5075045;28;20724;-65
2023/10/16 04:03:47;;;;;;;1.70;1.60;;;;;0.70;96406.00;;;;5075577;28;20202;-65
2023/10/16 04:06:19;;;;;;;1.00;1.00;;;;;0.90;96404.00;;;;5075219;28;20602;-65
2023/10/16 04:08:47;;;;;;;1.00;1.00;;;;;0.80;96420.00;;;;5075884;28;20213;-65
2023/10/16 04:11:14;;;;;;;0.83;0.83;;;;;0.70;96410.00;;;;5075358;28;20631;-65
2023/10/16 04:13:47;;;;;;;0.90;0.90;;;;;0.60;96415.00;;;;5074763;28;20186;-65
2023/10/16 04:16:30;;;;;;;0.90;0.90;;;;;0.60;96413.00;;;;5075326;28;20240;-65
2023/10/16 04:19:34;;;;;;;1.67;1.57;;;;;0.80;96409.00;;;;5075828;28;20204;-65
2023/10/16 04:21:50;;;;;;;1.00;1.00;;;;;0.70;96411.00;;;;5074913;28;20217;-65
2023/10/16 04:24:31;;;;;;;1.00;1.00;;;;;0.50;96419.00;;;;5075433;28;20205;-65
2023/10/16 04:29:49;;;;;;;1.30;1.20;;;;;0.60;96413.00;;;;5074620;28;20295;-65
2023/10/16 04:32:27;;;;;;;1.20;1.10;;;;;0.50;96411.00;;;;5073371;28;20211;-65
2023/10/16 04:34:57;;;;;;;0.87;0.87;;;;;0.50;96413.00;;;;5074831;28;20186;-65
2023/10/16 04:37:29;;;;;;;1.00;1.00;;;;;0.50;96412.00;;;;5074804;28;20240;-65
2023/10/16 04:43:07;;;;;;;0.80;0.80;;;;;0.50;96410.00;;;;5074563;28;20247;-65
2023/10/16 04:45:59;;;;;;;1.17;1.17;;;;;0.60;96406.00;;;;5074662;28;20174;-65
2023/10/16 04:48:47;;;;;;;0.70;0.70;;;;;0.70;96397.00;;;;5074664;28;20185;-65
2023/10/16 04:51:22;;;;;;;1.33;1.30;;;;;0.70;96397.00;;;;5074883;28;20215;-65
2023/10/16 04:54:04;;;;;;;0.90;0.90;;;;;0.80;96397.00;;;;5074557;28;20219;-65
2023/10/16 04:56:57;;;;;;;0.70;0.70;;;;;0.80;96391.00;;;;5073024;28;20243;-65
2023/10/16 04:59:58;;;;;;;0.70;0.70;;;;;0.70;96386.00;;;;5074487;28;20181;-65
2023/10/16 05:02:40;;;;;;;0.87;0.87;;;;;0.60;96395.00;;;;5073812;28;20225;-65
2023/10/16 05:08:06;;;;;;;0.60;0.60;;;;;0.60;96385.00;;;;5074030;28;20624;-65
2023/10/16 05:11:23;;;;;;;0.90;0.90;;;;;0.50;96394.00;;;;5074573;28;20190;-65
2023/10/16 05:13:55;;;;;;;1.43;1.37;;;;;0.40;96390.00;;;;5072397;28;20414;-65
2023/10/16 05:16:32;;;;;;;0.73;0.73;;;;;0.40;96394.00;;;;5074113;28;20188;-65
2023/10/16 05:19:15;;;;;;;1.10;1.10;;;;;0.40;96381.00;;;;5073639;28;20271;-65
2023/10/16 06:14:20;;;;;;;1.10;1.10;;;;;0.40;96373.00;;;;5073201;28;20183;-66
2023/10/16 06:16:53;;;;;;;2.47;1.50;;;;;0.50;96388.00;;;;5072993;28;20563;-66
2023/10/16 06:19:22;;;;;;;0.97;0.97;;;;;0.50;96387.00;;;;5073556;28;20310;-66
2023/10/16 06:21:51;;;;;;;0.77;0.77;;;;;0.50;96387.00;;;;5073089;28;20204;-66
2023/10/16 06:24:32;;;;;;;1.20;0.90;;;;;0.50;96389.00;;;;5073123;28;20228;-66
2023/10/16 06:27:01;;;;;;;0.70;0.70;;;;;0.60;96393.00;;;;5071476;28;20181;-66
2023/10/16 06:29:34;;;;;;;0.80;0.80;;;;;0.70;96388.00;;;;5068709;28;20197;-65
2023/10/16 06:32:07;;;;;;;1.30;1.20;;;;;0.70;96388.00;;;;5070677;28;20213;-65
2023/10/16 06:34:35;;;;;;;1.13;1.13;;;;;0.80;96387.00;;;;5071419;28;20195;-65
2023/10/16 06:37:05;;;;;;;0.90;0.90;;;;;0.80;96389.00;;;;5074786;28;20210;-65
2023/10/16 06:39:35;;;;;;;1.50;1.30;;;;;0.80;96389.00;;;;5075636;28;20691;-65
2023/10/16 06:42:03;;;;;;;1.23;1.23;;;;;1.00;96386.00;;;;5074733;28;20761;-62
2023/10/16 06:44:34;;;;;;;1.20;1.20;;;;;1.00;96393.00;;;;5072805;28;20260;-63
2023/10/16 06:47:02;;;;;;;13.17;1.60;;;;;1.10;96391.00;;;;5069356;28;20209;-64
2023/10/16 06:49:35;;;;;;;2.50;2.30;;;;;1.10;96377.00;;;;5073552;28;20207;-64
2023/10/16 06:52:04;;;;;;;2.10;2.00;;;;;1.10;96394.00;;;;5072339;28;20574;-64
2023/10/16 06:54:32;;;;;;;1.47;1.37;;;;;1.20;96385.00;;;;5075299;28;20194;-64
2023/10/16 06:57:04;;;;;;;1.17;1.17;;;;;1.10;96385.00;;;;5073463;28;20198;-64
2023/10/16 06:59:32;;;;;;;0.90;0.90;;;;;1.00;96389.00;;;;5074522;28;20194;-64
2023/10/16 07:02:00;;;;;;;1.10;1.10;;;;;1.10;96394.00;;;;5073706;28;20241;-64
2023/10/16 07:04:29;;;;;;;3.50;1.87;;;;;1.20;96392.00;;;;5072933;28;20233;-65
2023/10/16 07:06:57;;;;;;;1.77;1.67;;;;;1.30;96391.00;;;;5073892;28;20213;-64
2023/10/16 07:09:35;;;;;;;4.27;1.70;;;;;1.40;96393.00;;;;5073325;28;20712;-64
2023/10/16 07:12:04;;;;;;;2.67;1.93;;;;;1.50;96390.00;;;;5074256;28;20279;-64
2023/10/16 07:14:31;;;;;;;1.53;1.43;;;;;1.60;96384.00;;;;5072550;28;20210;-64
2023/10/16 07:17:00;;;;;;;1.13;1.13;;;;;1.50;96389.00;;;;5074167;28;20202;-62
2023/10/16 07:19:28;;;;;;;1.27;1.27;;;;;1.60;96382.00;;;;5073657;28;20508;-64
2023/10/16 07:21:56;;;;;;;1.73;1.63;;;;;1.50;96391.00;;;;5074990;28;20245;-64
2023/10/16 07:24:23;;;;;;;4.90;2.73;;;;;1.60;96389.00;;;;5074517;28;20608;-64
2023/10/16 07:26:51;;;;;;;2.10;1.90;;;;;1.70;96395.00;;;;5074569;28;20645;-64
2023/10/16 07:29:21;;;;;;;1.60;1.50;;;;;1.80;96392.00;;;;5069727;28;20205;-64
2023/10/16 07:31:51;;;;;;;1.63;1.53;;;;;1.80;96389.00;;;;5074432;28;20305;-64
2023/10/16 07:34:19;;;;;;;1.43;1.40;;;;;1.80;96387.00;;;;5073442;28;20198;-64
2023/10/16 07:36:48;;;;;;;1.37;1.33;;;;;2.00;96381.00;;;;5073055;28;20653;-64
2023/10/16 07:39:16;;;;;;;1.53;1.43;;;;;2.00;96393.00;;;;5072922;28;20912;-64
2023/10/16 07:41:43;;;;;;;1.57;1.50;;;;;2.00;96380.00;;;;5071601;28;20224;-64
2023/10/16 07:44:11;;;;;;;1.63;1.53;;;;;2.10;96376.00;;;;5072862;28;20236;-64
2023/10/16 07:46:38;;;;;;;1.30;1.20;;;;;2.20;96384.00;;;;5073099;28;20317;-64
2023/10/16 07:49:12;;;;;;;1.00;1.00;;;;;2.40;96370.00;;;;5071138;28;20575;-64
2023/10/16 07:51:45;;;;;;;0.80;0.80;;;;;2.40;96382.00;;;;5073613;28;20219;-64
2023/10/16 07:54:14;;;;;;;1.20;1.10;;;;;2.50;96384.00;;;;5073716;28;20645;-64
2023/10/16 07:56:41;;;;;;;1.00;1.00;;;;;2.50;96374.00;;;;5074028;28;20686;-63
2023/10/16 07:59:08;;;;;;;1.13;1.13;;;;;2.60;96383.00;;;;5073509;28;20191;-63
2023/10/16 08:01:36;;;;;;;1.10;1.10;;;;;2.60;96377.00;;;;5072897;28;20724;-63
2023/10/16 08:04:06;;;;;;;0.77;0.77;;;;;2.90;96385.00;;;;5073574;28;20222;-63
2023/10/16 08:06:39;;;;;;;0.93;0.93;;;;;3.00;96381.00;;;;5073222;28;20203;-63
2023/10/16 08:11:57;;;;;;;0.90;0.90;;;;;3.20;96378.00;;;;5071862;28;20326;-63
2023/10/16 08:14:24;;;;;;;0.93;0.93;;;;;3.40;96382.00;;;;5072733;28;20272;-63
2023/10/16 08:16:58;;;;;;;1.87;1.20;;;;;3.60;96389.00;;;;5073476;28;20195;-64
2023/10/16 08:19:26;;;;;;;0.90;0.90;;;;;3.70;96385.00;;;;5071656;28;20221;-64
2023/10/16 08:21:56;;;;;;;1.10;1.10;;;;;3.80;96382.00;;;;5072818;28;20234;-64
2023/10/16 08:24:24;;;;;;;0.87;0.87;;;;;3.80;96391.00;;;;5073153;28;20235;-64
2023/10/16 08:27:01;;;;;;;0.63;0.63;;;;;4.00;96382.00;;;;5075563;28;20202;-64
2023/10/16 08:29:34;;;;;;;0.70;0.70;;;;;4.30;96384.00;;;;5073055;28;20184;-64
2023/10/16 08:34:43;;;;;;;1.07;1.07;;;;;4.70;96394.00;;;;5072224;28;20200;-64
2023/10/16 08:37:11;;;;;;;2.10;2.00;;;;;4.80;96393.00;;;;5071416;28;20629;-63
2023/10/16 08:39:47;;;;;;;1.33;1.20;;;;;5.00;96399.00;;;;5071824;28;20286;-63
2023/10/16 08:42:20;;;;;;;1.07;1.07;;;;;4.90;96400.00;;;;5072457;28;20251;-63
2023/10/16 08:44:51;;;;;;;2.77;2.07;;;;;5.40;96399.00;;;;5072043;28;20204;-63
2023/10/16 08:47:24;;;;;;;1.67;1.57;;;;;5.40;96403.00;;;;5071864;28;20266;-63
2023/10/16 08:49:55;;;;;;;0.90;0.90;;;;;5.40;96402.00;;;;5072067;28;20231;-63
2023/10/16 08:52:33;;;;;;;1.03;1.03;;;;;5.50;96393.00;;;;5070532;28;20621;-63
2023/10/16 08:55:14;;;;;;;1.33;1.23;;;;;5.90;96403.00;;;;5071781;28;20187;-63
2023/10/16 08:57:43;;;;;;;1.10;1.10;;;;;6.20;96393.00;;;;5073033;28;20273;-63
2023/10/16 09:00:19;;;;;;;1.00;1.00;;;;;6.20;96396.00;;;;5070760;28;20199;-63
2023/10/16 09:02:51;;;;;;;1.13;1.13;;;;;6.00;96392.00;;;;5072566;28;20222;-64
2023/10/16 09:05:20;;;;;;;1.17;1.17;;;;;6.20;96390.00;;;;5072111;28;20209;-64
2023/10/16 09:07:49;;;;;;;0.80;0.80;;;;;6.40;96386.00;;;;5072146;28;20593;-64
2023/10/16 09:10:21;;;;;;;0.93;0.93;;;;;6.60;96387.00;;;;5072149;28;20226;-64
2023/10/16 09:13:13;;;;;;;0.87;0.87;;;;;6.50;96391.00;;;;5072454;28;20215;-64
2023/10/16 09:15:45;;;;;;;0.80;0.80;;;;;6.70;96389.00;;;;5071778;28;20683;-64
2023/10/16 09:18:16;;;;;;;0.97;0.97;;;;;6.90;96387.00;;;;5071064;28;20213;-64
2023/10/16 09:20:44;;;;;;;0.80;0.80;;;;;7.00;96381.00;;;;5071934;28;20684;-64
2023/10/16 09:23:14;;;;;;;2.90;1.27;;;;;7.10;96373.00;;;;5071621;28;20213;-64
2023/10/16 09:25:45;;;;;;;1.03;1.03;;;;;7.30;96377.00;;;;5071971;28;20278;-64
2023/10/16 09:28:18;;;;;;;0.77;0.77;;;;;7.50;96373.00;;;;5071454;28;20203;-64
2023/10/16 09:30:49;;;;;;;0.60;0.60;;;;;7.60;96366.00;;;;5072190;28;20557;-64
2023/10/16 09:33:18;;;;;;;0.60;0.60;;;;;7.80;96344.00;;;;5072111;28;20207;-65
2023/10/16 09:35:45;;;;;;;0.50;0.50;;;;;8.00;96359.00;;;;5071648;28;20274;-64
2023/10/16 09:38:17;;;;;;;0.70;0.70;;;;;8.30;96356.00;;;;5071859;28;20214;-64
2023/10/16 09:40:58;;;;;;;0.60;0.60;;;;;8.40;96354.00;;;;5072143;28;20249;-64
2023/10/16 09:43:27;;;;;;;0.60;0.60;;;;;8.60;96356.00;;;;5070486;28;20228;-64
2023/10/16 09:48:39;;;;;;;0.70;0.70;;;;;8.90;96337.00;;;;5071196;28;20203;-64
2023/10/16 09:51:12;;;;;;;0.50;0.50;;;;;8.80;96345.00;;;;5070333;28;20199;-64
2023/10/16 09:53:41;;;;;;;0.60;0.60;;;;;9.20;96347.00;;;;5071305;28;20183;-64
2023/10/16 09:56:12;;;;;;;0.77;0.77;;;;;9.30;96354.00;;;;5071781;28;20194;-64
2023/10/16 09:58:44;;;;;;;0.70;0.70;;;;;8.80;96344.00;;;;5065754;28;20566;-64
2023/10/16 10:01:23;;;;;;;0.80;0.80;;;;;8.80;96346.00;;;;5069840;28;20639;-64
2023/10/16 10:03:50;;;;;;;0.60;0.60;;;;;9.00;96344.00;;;;5070465;28;20201;-64
2023/10/16 10:06:21;;;;;;;0.70;0.70;;;;;9.20;96344.00;;;;5071787;28;20227;-64
2023/10/16 10:09:22;;;;;;;0.60;0.60;;;;;9.30;96341.00;;;;5071387;28;20194;-64
2023/10/16 10:11:59;;;;;;;0.70;0.70;;;;;9.80;96343.00;;;;5069207;28;20268;-64
2023/10/16 10:14:39;;;;;;;0.90;0.90;;;;;9.80;96346.00;;;;5071351;28;20194;-63
2023/10/16 10:17:10;;;;;;;1.10;1.10;;;;;9.90;96346.00;;;;5067448;28;20650;-63
2023/10/16 10:19:40;;;;;;;0.80;0.80;;;;;9.80;96343.00;;;;5071457;28;20187;-63
2023/10/16 10:22:17;;;;;;;0.97;0.97;;;;;9.80;96344.00;;;;5071127;28;20219;-63
2023/10/16 10:24:51;;;;;;;0.80;0.80;;;;;9.70;96336.00;;;;5071369;28;20260;-64
2023/10/16 10:27:18;;;;;;;0.70;0.70;;;;;9.90;96345.00;;;;5071355;28;20218;-66
2023/10/16 10:29:48;;;;;;;0.70;0.70;;;;;9.90;96339.00;;;;5071201;28;20195;-66
2023/10/16 10:32:16;;;;;;;0.90;0.90;;;;;10.20;96342.00;;;;5071218;28;20211;-65
2023/10/16 10:34:45;;;;;;;1.07;1.07;;;;;10.20;96333.00;;;;5071183;28;20199;-64
2023/10/16 10:37:45;;;;;;;0.50;0.50;;;;;10.30;96334.00;;;;5065946;28;20195;-65
2023/10/16 10:40:15;;;;;;;0.60;0.60;;;;;10.60;96324.00;;;;5070985;28;20197;-65
2023/10/16 10:42:45;;;;;;;0.50;0.50;;;;;10.90;96327.00;;;;5071041;28;20215;-65
2023/10/16 10:45:21;;;;;;;0.70;0.70;;;;;10.80;96325.00;;;;5070920;28;20241;-66
2023/10/16 10:47:54;;;;;;;0.70;0.70;;;;;11.10;96316.00;;;;5070561;28;20184;-65
2023/10/16 10:50:22;;;;;;;0.77;0.77;;;;;11.30;96318.00;;;;5071244;28;20197;-63
2023/10/16 10:52:50;;;;;;;0.93;0.93;;;;;11.60;96314.00;;;;5070774;28;20575;-63
2023/10/16 10:55:22;;;;;;;0.50;0.50;;;;;11.50;96313.00;;;;5070792;28;20540;-64
2023/10/16 10:57:58;;;;;;;0.70;0.70;;;;;11.60;96303.00;;;;5070224;28;20650;-64
2023/10/16 11:00:44;;;;;;;0.70;0.70;;;;;11.70;96306.00;;;;5070668;28;20291;-64
2023/10/16 11:03:22;;;;;;;1.00;1.00;;;;;11.50;96303.00;;;;5067368;28;20223;-64
2023/10/16 11:05:50;;;;;;;0.70;0.70;;;;;11.90;96294.00;;;;5070803;28;20207;-64
2023/10/16 11:08:22;;;;;;;0.80;0.80;;;;;11.90;96300.00;;;;5069731;28;20717;-63
2023/10/16 11:10:51;;;;;;;0.80;0.77;;;;;11.50;96301.00;;;;5069380;28;20203;-63
2023/10/16 11:13:21;;;;;;;0.60;0.60;;;;;12.00;96287.00;;;;5070148;28;20199;-63
2023/10/16 11:15:53;;;;;;;0.50;0.50;;;;;11.90;96284.00;;;;5068793;28;20669;-63
2023/10/16 11:18:22;;;;;;;0.77;0.77;;;;;12.30;96286.00;;;;5071102;28;20237;-63
2023/10/16 11:20:53;;;;;;;0.70;0.70;;;;;12.30;96276.00;;;;5070751;28;21843;-64
2023/10/16 11:23:22;;;;;;;0.50;0.50;;;;;12.20;96276.00;;;;5073014;28;20559;-63
2023/10/16 11:25:55;;;;;;;0.60;0.60;;;;;12.30;96267.00;;;;5070989;28;20215;-64
2023/10/16 11:28:28;;;;;;;0.83;0.83;;;;;12.50;96268.00;;;;5074529;28;20246;-64
2023/10/16 11:30:58;;;;;;;0.50;0.50;;;;;12.60;96261.00;;;;5072074;28;20206;-65
2023/10/16 11:33:27;;;;;;;0.70;0.70;;;;;12.90;96266.00;;;;5074202;28;20667;-65
2023/10/16 11:36:02;;;;;;;0.60;0.60;;;;;13.10;96249.00;;;;5073756;28;20241;-65
2023/10/16 11:38:30;;;;;;;0.70;0.70;;;;;13.50;96246.00;;;;5074009;28;20190;-65
2023/10/16 11:41:04;;;;;;;0.60;0.60;;;;;13.70;96252.00;;;;5073644;28;20203;-65
2023/10/16 11:43:37;;;;;;;0.60;0.60;;;;;13.30;96243.00;;;;5074395;28;20270;-65
2023/10/16 11:46:27;;;;;;;0.50;0.50;;;;;14.00;96244.00;;;;5074299;28;20241;-65
2023/10/16 11:48:58;;;;;;;0.50;0.50;;;;;14.10;96236.00;;;;5074520;28;20195;-65
2023/10/16 11:51:27;;;;;;;0.70;0.70;;;;;14.10;96229.00;;;;5073480;28;20303;-65
2023/10/16 11:53:59;;;;;;;0.50;0.50;;;;;14.50;96232.00;;;;5072755;28;20261;-65
2023/10/16 11:56:27;;;;;;;0.90;0.90;;;;;14.50;96219.00;;;;5071042;28;20226;-65
2023/10/16 11:58:55;;;;;;;0.73;0.73;;;;;14.80;96223.00;;;;5073981;28;20199;-64
2023/10/16 12:01:26;;;;;;;0.73;0.73;;;;;15.50;96211.00;;;;5072918;28;20238;-63
2023/10/16 12:03:55;;;;;;;0.77;0.77;;;;;15.40;96207.00;;;;5074031;28;20551;-65
2023/10/16 12:06:22;;;;;;;0.50;0.50;;;;;15.10;96219.00;;;;5073553;28;20253;-64
2023/10/16 12:08:50;;;;;;;0.83;0.70;;;;;14.70;96205.00;;;;5074008;28;20219;-64
2023/10/16 12:11:17;;;;;;;1.10;1.10;;;;;14.60;96210.00;;;;5073564;28;20219;-64
2023/10/16 12:13:46;;;;;;;0.60;0.60;;;;;14.70;96210.00;;;;5073613;28;20231;-64
2023/10/16 12:16:16;;;;;;;0.60;0.60;;;;;15.30;96210.00;;;;5074281;28;20203;-64
2023/10/16 12:18:47;;;;;;;1.90;0.80;;;;;16.00;96204.00;;;;5074002;28;20208;-64
2023/10/16 12:21:16;;;;;;;0.73;0.73;;;;;16.70;96167.00;;;;5071564;28;20279;-64
2023/10/16 12:23:43;;;;;;;0.60;0.60;;;;;16.70;96199.00;;;;5073733;28;20205;-64
2023/10/16 12:26:11;;;;;;;0.83;0.83;;;;;17.00;96189.00;;;;5073083;28;20215;-64
2023/10/16 12:28:39;;;;;;;0.60;0.60;;;;;16.60;96186.00;;;;5068374;28;20282;-65
2023/10/16 12:31:08;;;;;;;0.60;0.60;;;;;17.10;96185.00;;;;5073376;28;20282;-65
2023/10/16 12:33:37;;;;;;;0.63;0.63;;;;;17.30;96177.00;;;;5072530;28;20199;-65
2023/10/16 12:36:08;;;;;;;0.50;0.50;;;;;16.90;96174.00;;;;5070109;28;20203;-65
2023/10/16 12:38:35;;;;;;;0.50;0.50;;;;;16.90;96180.00;;;;5073017;28;20222;-65
2023/10/16 12:41:05;;;;;;;0.53;0.53;;;;;16.40;96172.00;;;;5072696;28;20202;-64
2023/10/16 12:43:33;;;;;;;0.60;0.60;;;;;16.80;96167.00;;;;5073212;28;20196;-64
2023/10/16 12:46:01;;;;;;;0.60;0.60;;;;;17.20;96163.00;;;;5072764;28;20689;-63
2023/10/16 12:48:29;;;;;;;0.50;0.50;;;;;16.60;96166.00;;;;5071005;28;20200;-63
2023/10/16 12:50:59;;;;;;;4.23;1.13;;;;;16.80;96156.00;;;;5072962;28;20290;-63
2023/10/16 12:53:29;;;;;;;0.90;0.90;;;;;17.60;96163.00;;;;5071843;28;20206;-63
2023/10/16 12:55:58;;;;;;;0.47;0.47;;;;;17.60;96154.00;;;;5072450;28;20284;-63
2023/10/16 12:58:27;;;;;;;2.00;1.43;;;;;17.50;96151.00;;;;5072761;28;20204;-63
2023/10/16 13:00:58;;;;;;;0.70;0.70;;;;;17.80;96152.00;;;;5072236;28;20195;-63
2023/10/16 13:03:25;;;;;;;0.70;0.70;;;;;18.00;96140.00;;;;5073183;28;20198;-64
2023/10/16 13:05:54;;;;;;;1.50;1.40;;;;;19.00;96136.00;;;;5071964;28;20222;-64
2023/10/16 13:08:21;;;;;;;0.60;0.60;;;;;18.70;96133.00;;;;5073081;28;20264;-64
2023/10/16 13:10:51;;;;;;;1.07;0.83;;;;;20.30;96123.00;;;;5072251;28;20195;-64
2023/10/16 13:13:21;;;;;;;0.70;0.70;;;;;19.20;96117.00;;;;5071089;28;20294;-64
2023/10/16 13:15:57;;;;;;;0.50;0.50;;;;;20.40;96100.00;;;;5072768;28;20191;-65
2023/10/16 13:18:28;;;;;;;0.50;0.50;;;;;21.80;96101.00;;;;5069746;28;20191;-65
2023/10/16 13:21:06;;;;;;;0.60;0.60;;;;;22.40;96097.00;;;;5072132;28;20197;-65
2023/10/16 13:23:36;;;;;;;0.50;0.50;;;;;22.70;96098.00;;;;5072781;28;20202;-65
2023/10/16 13:26:08;;;;;;;0.40;0.40;;;;;23.40;96099.00;;;;5071958;28;20215;-65
2023/10/16 13:28:40;;;;;;;0.70;0.70;;;;;23.10;96101.00;;;;5072710;28;20188;-64
2023/10/16 13:31:09;;;;;;;0.80;0.80;;;;;22.60;96102.00;;;;5069985;28;20227;-64
2023/10/16 13:33:41;;;;;;;0.80;0.80;;;;;24.70;96101.00;;;;5071823;28;20199;-64
2023/10/16 13:36:12;;;;;;;0.80;0.80;;;;;26.80;96103.00;;;;5071846;28;20647;-64
2023/10/16 13:38:40;;;;;;;0.60;0.60;;;;;29.00;96111.00;;;;5071381;28;20586;-66
2023/10/16 13:41:18;;;;;;;1.90;1.23;;;;;29.20;96114.00;;;;5071782;28;20242;-65
2023/10/16 13:43:46;;;;;;;0.50;0.50;;;;;27.10;96105.00;;;;5071911;28;20639;-64
2023/10/16 13:46:14;;;;;;;0.57;0.57;;;;;26.50;96103.00;;;;5071305;28;20226;-65
2023/10/16 13:48:45;;;;;;;0.45;0.45;;;;;28.50;96105.00;;;;5072111;28;20405;-65
2023/10/16 13:51:16;;;;;;;0.57;0.57;;;;;31.10;96109.00;;;;5068898;28;20265;-64
2023/10/16 13:53:46;;;;;;;0.55;0.55;;;;;31.90;96115.00;;;;5072491;28;20565;-64